createdAt,value
2022-11-06T00:00:27.246Z,99.90
2022-11-06T00:04:40.994Z,99.90
2022-11-06T00:08:55.303Z,98.80
2022-11-06T00:13:10.531Z,98.10
2022-11-06T00:17:24.229Z,97.80
2022-11-06T00:21:38.320Z,97.70
2022-11-06T00:25:56.481Z,97.60
2022-11-06T00:30:12.757Z,97.50
2022-11-06T00:34:26.430Z,97.30
2022-11-06T00:38:40.418Z,97.10
2022-11-06T00:49:59.541Z,96.90
2022-11-06T00:54:53.901Z,96.90
2022-11-06T00:59:48.308Z,96.80
2022-11-06T01:04:42.755Z,96.70
2022-11-06T01:09:38.898Z,96.60
2022-11-06T01:14:33.152Z,96.70
2022-11-06T01:19:02.888Z,96.70
2022-11-06T01:23:35.282Z,96.80
2022-11-06T01:27:50.541Z,96.90
2022-11-06T01:32:04.918Z,97.00
2022-11-06T01:36:20.602Z,97.10
2022-11-06T01:40:41.324Z,97.20
2022-11-06T01:45:23.235Z,97.20
2022-11-06T01:49:39.466Z,97.30
2022-11-06T01:54:00.920Z,97.20
2022-11-06T01:58:21.086Z,97.30
2022-11-06T02:02:36.941Z,97.40
2022-11-06T02:06:51.272Z,97.30
2022-11-06T02:11:05.092Z,97.30
2022-11-06T02:15:31.865Z,97.30
2022-11-06T02:20:05.425Z,97.30
2022-11-06T02:24:43.357Z,97.30
2022-11-06T02:29:03.820Z,97.30
2022-11-06T02:33:22.586Z,97.10
2022-11-06T02:37:38.591Z,97.00
2022-11-06T02:41:54.493Z,97.20
2022-11-06T02:46:14.408Z,97.40
2022-11-06T02:50:32.957Z,97.60
2022-11-06T02:54:51.558Z,97.70
2022-11-06T02:59:10.315Z,97.70
2022-11-06T03:03:29.330Z,97.70
2022-11-06T03:07:48.437Z,97.70
2022-11-06T03:12:11.421Z,97.70
2022-11-06T03:16:34.701Z,97.70
2022-11-06T03:20:58.392Z,97.60
2022-11-06T03:25:19.690Z,97.60
2022-11-06T03:29:41.546Z,97.70
2022-11-06T03:33:59.609Z,97.70
2022-11-06T03:38:20.295Z,97.60
2022-11-06T03:42:34.293Z,97.50
2022-11-06T03:46:51.285Z,97.50
2022-11-06T03:51:09.399Z,97.40
2022-11-06T03:55:31.087Z,97.40
2022-11-06T03:59:51.447Z,97.50
2022-11-06T04:04:10.456Z,97.60
2022-11-06T04:08:45.344Z,97.60
2022-11-06T04:13:18.684Z,97.60
2022-11-06T04:17:33.397Z,97.60
2022-11-06T04:22:03.088Z,97.50
2022-11-06T04:26:39.311Z,97.20
2022-11-06T04:31:06.825Z,97.10
2022-11-06T04:35:30.145Z,97.00
2022-11-06T04:39:53.108Z,97.10
2022-11-06T04:44:11.343Z,97.10
2022-11-06T04:48:27.389Z,97.10
2022-11-06T04:52:42.070Z,97.10
2022-11-06T04:57:00.506Z,97.10
2022-11-06T05:01:14.364Z,97.20
2022-11-06T05:05:29.534Z,97.20
2022-11-06T05:09:43.586Z,97.30
2022-11-06T05:13:57.393Z,97.20
2022-11-06T05:18:11.694Z,97.20
2022-11-06T05:22:44.481Z,97.00
2022-11-06T05:26:59.780Z,97.00
2022-11-06T05:31:13.860Z,97.10
2022-11-06T05:35:27.618Z,97.10
2022-11-06T05:39:42.755Z,97.30
2022-11-06T05:43:56.497Z,97.40
2022-11-06T05:48:10.432Z,97.40
2022-11-06T05:52:24.483Z,97.30
2022-11-06T05:56:39.841Z,97.40
2022-11-06T06:00:54.959Z,97.40
2022-11-06T06:05:09.876Z,97.40
2022-11-06T06:09:23.666Z,97.30
2022-11-06T06:13:38.801Z,97.20
2022-11-06T06:17:52.563Z,97.00
2022-11-06T06:22:06.282Z,96.90
2022-11-06T06:26:20.018Z,96.70
2022-11-06T06:30:35.965Z,96.50
2022-11-06T06:34:49.711Z,96.40
2022-11-06T06:39:03.454Z,96.30
2022-11-06T06:43:17.175Z,96.10
2022-11-06T06:47:32.233Z,95.90
2022-11-06T06:51:45.995Z,95.80
2022-11-06T06:56:00.693Z,95.60
2022-11-06T07:00:14.896Z,95.50
2022-11-06T07:04:30.043Z,95.30
2022-11-06T07:08:44.053Z,95.20
2022-11-06T07:13:01.189Z,95.00
2022-11-06T07:17:14.962Z,94.90
2022-11-06T07:21:30.099Z,94.80
2022-11-06T07:25:44.000Z,94.80
2022-11-06T07:29:57.663Z,94.70
2022-11-06T07:34:11.452Z,94.60
2022-11-06T07:38:26.528Z,94.60
2022-11-06T07:42:43.514Z,94.60
2022-11-06T07:47:01.871Z,96.00
2022-11-06T07:51:15.531Z,97.00
2022-11-06T07:55:30.691Z,91.60
2022-11-06T07:59:44.517Z,83.30
2022-11-06T08:03:58.354Z,76.80
2022-11-06T08:08:12.722Z,70.80
2022-11-06T08:12:27.886Z,69.00
2022-11-06T08:16:41.710Z,69.70
2022-11-06T08:20:56.696Z,71.70
2022-11-06T08:25:20.043Z,69.30
2022-11-06T08:29:40.897Z,67.30
2022-11-06T08:33:55.256Z,67.10
2022-11-06T08:38:09.050Z,67.70
2022-11-06T08:42:22.785Z,63.60
2022-11-06T08:46:37.864Z,71.70
2022-11-06T08:50:51.749Z,59.90
2022-11-06T08:55:06.213Z,59.10
2022-11-06T08:59:19.955Z,58.90
2022-11-06T09:03:35.177Z,58.20
2022-11-06T09:07:48.870Z,57.80
2022-11-06T09:12:03.673Z,57.90
2022-11-06T09:16:17.515Z,57.70
2022-11-06T09:20:32.656Z,57.70
2022-11-06T09:25:04.075Z,57.60
2022-11-06T09:29:18.472Z,56.80
2022-11-06T09:33:32.135Z,56.90
2022-11-06T09:37:47.519Z,60.40
2022-11-06T09:42:05.112Z,71.30
2022-11-06T09:46:23.821Z,57.70
2022-11-06T09:50:41.641Z,57.90
2022-11-06T09:55:01.480Z,58.00
2022-11-06T09:59:18.902Z,58.00
2022-11-06T10:03:41.606Z,57.40
2022-11-06T10:07:58.032Z,57.00
2022-11-06T10:12:20.622Z,56.60
2022-11-06T10:16:41.806Z,55.30
2022-11-06T10:21:02.206Z,54.50
2022-11-06T10:25:22.088Z,52.30
2022-11-06T10:29:59.321Z,51.20
2022-11-06T10:34:16.997Z,49.20
2022-11-06T10:38:34.804Z,49.60
2022-11-06T10:42:54.772Z,49.00
2022-11-06T10:47:15.319Z,48.70
2022-11-06T10:51:40.268Z,49.50
2022-11-06T10:56:11.023Z,49.30
2022-11-06T11:00:25.504Z,48.10
2022-11-06T11:04:41.150Z,48.20
2022-11-06T11:08:54.870Z,48.40
2022-11-06T11:13:21.855Z,48.20
2022-11-06T11:17:35.600Z,48.80
2022-11-06T11:21:56.656Z,48.50
2022-11-06T11:26:22.831Z,48.00
2022-11-06T11:30:36.565Z,47.70
2022-11-06T11:34:56.633Z,48.30
2022-11-06T11:39:12.749Z,49.10
2022-11-06T11:43:28.780Z,49.90
2022-11-06T11:47:45.956Z,49.90
2022-11-06T11:52:01.818Z,49.50
2022-11-06T11:56:42.444Z,49.70
2022-11-06T12:00:55.969Z,50.30
2022-11-06T12:05:12.416Z,52.10
2022-11-06T12:09:26.707Z,52.60
2022-11-06T12:13:44.851Z,54.60
2022-11-06T12:18:00.506Z,53.30
2022-11-06T12:22:20.035Z,53.00
2022-11-06T12:26:38.047Z,58.00
2022-11-06T12:31:05.492Z,54.80
2022-11-06T12:35:26.149Z,53.80
2022-11-06T12:39:41.720Z,52.50
2022-11-06T12:43:57.006Z,53.50
2022-11-06T12:48:29.515Z,54.80
2022-11-06T12:53:06.331Z,56.00
2022-11-06T12:57:28.818Z,57.00
2022-11-06T13:01:52.913Z,57.60
2022-11-06T13:06:14.386Z,58.50
2022-11-06T13:10:37.948Z,59.40
2022-11-06T13:15:04.476Z,59.90
2022-11-06T13:19:25.761Z,61.00
2022-11-06T13:23:49.225Z,60.50
2022-11-06T13:28:24.018Z,60.50
2022-11-06T13:32:40.411Z,60.50
2022-11-06T13:36:55.801Z,60.70
2022-11-06T13:41:16.156Z,61.00
2022-11-06T13:45:36.231Z,62.00
2022-11-06T13:49:59.961Z,62.60
2022-11-06T13:54:36.433Z,63.00
2022-11-06T13:59:08.245Z,63.30
2022-11-06T14:03:56.831Z,63.60
2022-11-06T14:08:17.264Z,63.90
2022-11-06T14:12:31.211Z,64.30
2022-11-06T14:16:48.163Z,64.50
2022-11-06T14:21:42.975Z,64.70
2022-11-06T14:26:00.962Z,65.10
2022-11-06T14:31:10.354Z,65.30
2022-11-06T14:35:53.316Z,65.50
2022-11-06T14:40:13.133Z,65.70
2022-11-06T14:44:35.677Z,66.00
2022-11-06T14:48:53.229Z,66.50
2022-11-06T14:53:21.340Z,66.70
2022-11-06T14:57:42.987Z,66.90
2022-11-06T15:02:03.590Z,67.10
2022-11-06T15:06:41.758Z,67.20
2022-11-06T15:10:56.915Z,67.40
2022-11-06T15:15:18.249Z,67.60
2022-11-06T15:19:39.536Z,67.90
2022-11-06T15:24:04.684Z,68.20
2022-11-06T15:28:24.660Z,68.50
2022-11-06T15:32:42.067Z,68.70
2022-11-06T15:37:04.687Z,69.00
2022-11-06T15:41:22.466Z,69.50
2022-11-06T15:45:37.994Z,69.90
2022-11-06T15:50:12.104Z,70.20
2022-11-06T15:54:36.029Z,70.70
2022-11-06T15:59:07.571Z,71.20
2022-11-06T16:03:24.579Z,71.70
2022-11-06T16:07:38.932Z,72.20
2022-11-06T16:11:54.014Z,72.60
2022-11-06T16:16:28.127Z,73.00
2022-11-06T16:20:44.649Z,73.50
2022-11-06T16:25:01.687Z,74.20
2022-11-06T16:29:20.281Z,74.40
2022-11-06T16:33:34.301Z,74.90
2022-11-06T16:37:50.207Z,75.30
2022-11-06T16:42:19.719Z,75.60
2022-11-06T16:47:13.253Z,76.20
2022-11-06T16:51:32.736Z,76.60
2022-11-06T16:55:54.520Z,76.80
2022-11-06T17:00:23.475Z,77.10
2022-11-06T17:04:37.445Z,77.50
2022-11-06T17:09:24.994Z,77.80
2022-11-06T17:13:43.088Z,78.00
2022-11-06T17:17:57.016Z,78.40
2022-11-06T17:22:11.745Z,78.50
2022-11-06T17:26:28.969Z,78.80
2022-11-06T17:30:44.420Z,79.00
2022-11-06T17:34:58.594Z,79.20
2022-11-06T17:39:12.417Z,79.60
2022-11-06T17:43:26.194Z,79.80
2022-11-06T17:47:41.613Z,80.10
2022-11-06T17:51:59.880Z,80.00
2022-11-06T17:56:14.413Z,80.10
2022-11-06T18:00:28.475Z,80.00
2022-11-06T18:04:44.481Z,80.70
2022-11-06T18:08:58.630Z,81.20
2022-11-06T18:13:12.625Z,82.40
2022-11-06T18:17:26.729Z,83.20
2022-11-06T18:21:42.468Z,83.60
2022-11-06T18:25:58.249Z,83.90
2022-11-06T18:30:13.371Z,84.00
2022-11-06T18:34:27.091Z,84.20
2022-11-06T18:38:43.147Z,84.20
2022-11-06T18:42:57.224Z,84.20
2022-11-06T18:47:10.996Z,84.30
2022-11-06T18:51:35.015Z,84.30
2022-11-06T18:55:50.490Z,84.30
2022-11-06T19:00:05.327Z,84.30
2022-11-06T19:04:19.237Z,84.40
2022-11-06T19:08:32.937Z,84.50
2022-11-06T19:12:48.007Z,84.60
2022-11-06T19:17:01.807Z,85.00
2022-11-06T19:21:15.706Z,86.00
2022-11-06T19:25:29.548Z,85.60
2022-11-06T19:29:44.659Z,86.00
2022-11-06T19:33:59.130Z,86.60
2022-11-06T19:38:12.900Z,87.20
2022-11-06T19:42:26.617Z,87.70
2022-11-06T19:46:41.798Z,88.20
2022-11-06T19:51:00.056Z,88.50
2022-11-06T19:55:26.032Z,88.80
2022-11-06T19:59:41.220Z,88.90
2022-11-06T20:03:56.583Z,89.00
2022-11-06T20:08:10.898Z,89.00
2022-11-06T20:12:24.620Z,89.10
2022-11-06T20:16:38.404Z,89.30
2022-11-06T20:20:53.498Z,89.60
2022-11-06T20:25:08.073Z,90.20
2022-11-06T20:29:22.046Z,89.80
2022-11-06T20:33:36.360Z,89.80
2022-11-06T20:37:51.438Z,89.90
2022-11-06T20:42:05.463Z,90.00
2022-11-06T20:46:20.232Z,90.10
2022-11-06T20:50:34.593Z,90.20
2022-11-06T20:54:49.784Z,90.20
2022-11-06T20:59:03.498Z,90.60
2022-11-06T21:03:17.456Z,90.40
2022-11-06T21:07:31.418Z,90.60
2022-11-06T21:11:46.559Z,90.70
2022-11-06T21:16:01.843Z,90.70
2022-11-06T21:20:20.382Z,90.60
2022-11-06T21:24:36.599Z,90.60
2022-11-06T21:28:52.310Z,90.60
2022-11-06T21:33:06.047Z,90.60
2022-11-06T21:37:20.170Z,90.60
2022-11-06T21:41:34.656Z,90.60
2022-11-06T21:45:49.692Z,90.60
2022-11-06T21:50:03.449Z,90.70
2022-11-06T21:54:34.564Z,90.70
2022-11-06T21:58:54.779Z,90.70
2022-11-06T22:03:09.819Z,90.60
2022-11-06T22:07:23.521Z,90.60
2022-11-06T22:11:39.312Z,90.60
2022-11-06T22:15:56.110Z,90.60
2022-11-06T22:20:12.602Z,90.60
2022-11-06T22:24:26.406Z,90.70
2022-11-06T22:28:40.564Z,90.70
2022-11-06T22:32:54.345Z,90.90
2022-11-06T22:37:09.449Z,91.00
2022-11-06T22:41:24.954Z,91.10
2022-11-06T22:45:42.060Z,91.20
2022-11-06T22:49:56.484Z,91.30
2022-11-06T22:54:11.625Z,91.30
2022-11-06T22:58:25.709Z,91.20
2022-11-06T23:02:42.255Z,91.00
2022-11-06T23:06:56.056Z,90.90
2022-11-06T23:11:13.670Z,90.80
2022-11-06T23:15:27.356Z,90.70
2022-11-06T23:19:41.044Z,90.70
2022-11-06T23:23:54.727Z,90.60
2022-11-06T23:28:09.912Z,90.70
2022-11-06T23:32:23.797Z,90.80
2022-11-06T23:36:37.577Z,90.80
2022-11-06T23:40:51.256Z,90.80
2022-11-06T23:45:24.783Z,90.80
2022-11-06T23:49:38.540Z,90.80
2022-11-06T23:53:52.605Z,90.70
2022-11-06T23:58:08.268Z,90.70
